Time;durP1;ratioP1;P1;durP2;ratioP2;P2;SDS_P1;SDS_P2;PMS_P1;PMS_P2;Temp;Humidity;BMP_temperature;BMP_pressure;BME280_temperature;BME280_humidity;BME280_pressure;Samples;Min_cycle;Max_cycle;Signal;HPM_P1;HPM_P2
2023/03/21 00:01:29;;;;;;;34.53;25.97;;;;;;;7.95;100.00;101652.19;5104767;28;20212;-70
2023/03/21 00:03:54;;;;;;;35.93;27.03;;;;;;;7.95;100.00;101644.53;5107522;28;20241;-70
2023/03/21 00:06:20;;;;;;;39.30;27.93;;;;;;;7.91;100.00;101653.75;5107162;28;20191;-71
2023/03/21 00:08:46;;;;;;;40.50;27.97;;;;;;;7.91;100.00;101651.19;5104059;28;20595;-72
2023/03/21 00:11:11;;;;;;;39.93;28.70;;;;;;;7.93;100.00;101641.91;5101764;28;20549;-72
2023/03/21 00:13:41;;;;;;;45.43;32.10;;;;;;;7.91;100.00;101650.31;5104264;28;20256;-72
2023/03/21 00:16:17;;;;;;;45.97;31.30;;;;;;;7.92;100.00;101650.38;5103279;28;20196;-74
2023/03/21 00:18:51;;;;;;;45.53;30.77;;;;;;;7.90;100.00;101641.81;5103432;28;20207;-73
2023/03/21 00:21:19;;;;;;;39.03;28.63;;;;;;;7.88;100.00;101645.97;5101738;28;20214;-74
2023/03/21 00:23:45;;;;;;;42.67;29.77;;;;;;;7.90;100.00;101640.94;5106996;28;20188;-71
2023/03/21 00:26:11;;;;;;;44.70;29.87;;;;;;;7.88;100.00;101635.75;5102317;28;20203;-73
2023/03/21 00:28:41;;;;;;;45.27;31.37;;;;;;;7.91;100.00;101637.56;5100033;28;20191;-72
2023/03/21 00:31:07;;;;;;;43.77;29.23;;;;;;;7.91;100.00;101635.00;5084918;28;20202;-71
2023/03/21 00:33:34;;;;;;;42.33;29.60;;;;;;;7.90;100.00;101634.16;5107580;28;20199;-71
2023/03/21 00:36:01;;;;;;;43.37;29.73;;;;;;;7.95;100.00;101631.78;5088704;28;20188;-71
2023/03/21 00:38:27;;;;;;;41.70;29.90;;;;;;;7.93;100.00;101631.72;5100245;28;20254;-72
2023/03/21 00:40:53;;;;;;;44.40;31.57;;;;;;;7.92;100.00;101627.44;5068261;28;20193;-71
2023/03/21 00:43:22;;;;;;;43.30;29.43;;;;;;;7.93;100.00;101623.22;5102412;28;20208;-72
2023/03/21 00:45:50;;;;;;;44.20;29.93;;;;;;;7.95;100.00;101626.69;5091037;28;20191;-72
2023/03/21 00:48:17;;;;;;;43.03;30.03;;;;;;;7.93;100.00;101626.63;5105974;28;20181;-75
2023/03/21 00:50:45;;;;;;;45.90;30.93;;;;;;;7.92;100.00;101622.34;5089461;28;20246;-71
2023/03/21 00:53:11;;;;;;;46.00;31.20;;;;;;;7.93;100.00;101623.22;5103797;28;20261;-71
2023/03/21 00:55:37;;;;;;;45.17;30.90;;;;;;;7.95;100.00;101625.03;5106122;28;20310;-72
2023/03/21 00:58:03;;;;;;;44.77;29.67;;;;;;;7.93;100.00;101613.88;5108900;28;20256;-71
2023/03/21 01:00:29;;;;;;;42.47;29.97;;;;;;;7.95;100.00;101611.41;5111465;28;20577;-71
2023/03/21 01:02:56;;;;;;;45.13;30.50;;;;;;;7.95;100.00;101608.84;5107152;28;20575;-70
2023/03/21 01:08:14;;;;;;;46.77;31.40;;;;;;;7.93;100.00;101605.38;5091495;28;20195;-70
2023/03/21 01:10:42;;;;;;;47.20;31.60;;;;;;;7.96;100.00;101614.00;5092038;28;20187;-70
2023/03/21 01:13:09;;;;;;;45.60;31.53;;;;;;;7.96;100.00;101605.47;5105845;28;20223;-70
2023/03/21 01:15:36;;;;;;;45.13;30.67;;;;;;;7.96;100.00;101606.38;5089730;28;20291;-73
2023/03/21 01:18:02;;;;;;;43.33;30.07;;;;;;;7.99;100.00;101605.63;5092857;28;22178;-71
2023/03/21 01:20:28;;;;;;;43.13;30.53;;;;;;;7.99;100.00;101603.94;5091768;28;20199;-70
2023/03/21 01:22:54;;;;;;;44.23;30.67;;;;;;;8.01;100.00;101609.13;5089780;28;20211;-71
2023/03/21 01:25:19;;;;;;;46.50;31.07;;;;;;;8.02;100.00;101598.09;5104394;28;20232;-73
2023/03/21 01:27:45;;;;;;;41.97;30.13;;;;;;;8.01;100.00;101597.22;5093739;28;20188;-72
2023/03/21 01:30:11;;;;;;;46.83;31.50;;;;;;;8.03;100.00;101589.66;5086436;28;20680;-71
2023/03/21 01:32:37;;;;;;;42.23;29.77;;;;;;;8.04;100.00;101596.47;5091739;28;20215;-72
2023/03/21 01:35:03;;;;;;;46.27;30.90;;;;;;;8.03;100.00;101597.28;5089278;28;20298;-72
2023/03/21 01:37:28;;;;;;;46.47;30.90;;;;;;;8.02;100.00;101596.41;5107565;28;20721;-71
2023/03/21 01:39:54;;;;;;;46.13;31.87;;;;;;;8.03;100.00;101594.75;5092769;28;20215;-71
2023/03/21 01:42:19;;;;;;;45.33;31.83;;;;;;;8.03;100.00;101594.75;5077351;28;20206;-76
2023/03/21 01:44:59;;;;;;;42.93;30.60;;;;;;;8.02;100.00;101598.09;5093309;28;20184;-71
2023/03/21 01:47:33;;;;;;;50.87;32.83;;;;;;;8.03;100.00;101594.75;5106362;28;20577;-70
2023/03/21 01:50:05;;;;;;;47.97;32.30;;;;;;;8.03;100.00;101602.41;5086612;28;20184;-70
2023/03/21 01:52:39;;;;;;;48.90;33.37;;;;;;;8.02;100.00;101598.97;5088301;28;20264;-73
2023/03/21 01:55:13;;;;;;;50.23;33.13;;;;;;;8.03;100.00;101592.19;5087242;28;20207;-72
2023/03/21 01:57:51;;;;;;;50.17;32.43;;;;;;;8.05;100.00;101595.66;5091188;28;20720;-73
2023/03/21 02:00:19;;;;;;;51.43;33.53;;;;;;;8.04;100.00;101591.38;5091246;28;20187;-71
2023/03/21 02:02:54;;;;;;;51.70;33.70;;;;;;;8.03;100.00;101585.44;5107598;28;20722;-71
2023/03/21 02:06:05;;;;;;;51.97;34.63;;;;;;;8.03;100.00;101580.34;5089687;28;20642;-72
2023/03/21 02:08:35;;;;;;;55.03;33.17;;;;;;;8.04;100.00;101581.19;5091541;28;20199;-72
2023/03/21 02:11:08;;;;;;;50.20;32.77;;;;;;;8.04;100.00;101582.06;5091126;28;20219;-71
2023/03/21 02:13:40;;;;;;;50.03;33.50;;;;;;;8.05;100.00;101580.38;5090146;28;20206;-71
2023/03/21 02:16:12;;;;;;;50.43;33.30;;;;;;;8.05;100.00;101578.69;5090200;28;20180;-72
2023/03/21 02:18:46;;;;;;;50.60;33.77;;;;;;;8.05;100.00;101575.25;5086846;28;20211;-71
2023/03/21 02:21:36;;;;;;;46.87;31.73;;;;;;;8.06;100.00;101571.94;5074715;28;20230;-73
2023/03/21 02:24:07;;;;;;;50.63;34.27;;;;;;;8.04;100.00;101571.88;5088079;28;20237;-71
2023/03/21 02:27:01;;;;;;;53.53;33.50;;;;;;;8.04;100.00;101568.44;5087902;28;20242;-71
2023/03/21 02:30:01;;;;;;;52.53;34.03;;;;;;;8.05;100.00;101565.94;5088801;28;20191;-70
2023/03/21 02:33:00;;;;;;;55.07;34.23;;;;;;;8.05;100.00;101565.94;5102856;28;20226;-73
2023/03/21 02:36:03;;;;;;;53.10;33.57;;;;;;;8.06;100.00;101559.19;5051613;28;20286;-71
2023/03/21 02:38:42;;;;;;;51.57;34.03;;;;;;;8.05;100.00;101557.41;5078998;28;20208;-72
2023/03/21 02:41:15;;;;;;;51.77;33.90;;;;;;;8.04;100.00;101558.22;5075634;28;20545;-73
2023/03/21 02:43:46;;;;;;;51.57;33.60;;;;;;;8.04;100.00;101555.69;5089857;28;20297;-71
2023/03/21 02:46:17;;;;;;;53.87;35.30;;;;;;;8.04;100.00;101556.56;5088144;28;20199;-71
2023/03/21 02:49:13;;;;;;;56.67;35.93;;;;;;;8.04;100.00;101561.66;5084899;28;20191;-70
2023/03/21 02:51:42;;;;;;;55.67;34.87;;;;;;;8.03;100.00;101557.38;5090382;28;20211;-71
2023/03/21 02:54:18;;;;;;;49.13;33.97;;;;;;;8.03;100.00;101557.38;5074152;28;20192;-73
2023/03/21 02:56:47;;;;;;;54.30;36.27;;;;;;;8.03;100.00;101553.94;5089652;28;20193;-72
2023/03/21 02:59:15;;;;;;;53.83;33.27;;;;;;;8.06;100.00;101554.94;5085716;28;20252;-71
2023/03/21 03:01:40;;;;;;;55.23;35.80;;;;;;;8.04;100.00;101550.56;5093080;28;20327;-72
2023/03/21 03:04:23;;;;;;;56.27;34.87;;;;;;;8.06;100.00;101554.94;5108443;28;20951;-74
2023/03/21 03:07:10;;;;;;;52.30;33.50;;;;;;;8.05;100.00;101545.53;5088297;28;20188;-72
2023/03/21 03:10:01;;;;;;;53.20;34.43;;;;;;;8.08;100.00;101542.25;5087880;28;20200;-73
2023/03/21 03:12:56;;;;;;;53.77;35.13;;;;;;;8.06;100.00;101538.78;5087310;28;20215;-70
2023/03/21 03:15:37;;;;;;;52.60;33.53;;;;;;;8.07;100.00;101541.38;5087724;28;20192;-70
2023/03/21 03:18:35;;;;;;;54.20;34.60;;;;;;;8.07;100.00;101543.06;5087412;28;20193;-73
2023/03/21 03:21:39;;;;;;;49.17;33.47;;;;;;;8.04;100.00;101546.34;5082347;28;20203;-73
2023/03/21 03:24:41;;;;;;;52.73;34.27;;;;;;;8.06;100.00;101538.78;5087719;28;20199;-74
2023/03/21 03:27:14;;;;;;;50.03;33.23;;;;;;;8.08;100.00;101539.69;5072868;28;20274;-70
2023/03/21 03:29:43;;;;;;;51.97;35.27;;;;;;;8.08;100.00;101540.56;5089245;28;20270;-71
2023/03/21 03:32:15;;;;;;;48.93;31.43;;;;;;;8.08;100.00;101537.16;5090499;28;20711;-72
2023/03/21 03:34:48;;;;;;;53.50;34.03;;;;;;;8.10;100.00;101533.84;5092753;28;20248;-71
2023/03/21 03:37:20;;;;;;;53.17;34.83;;;;;;;8.10;100.00;101541.50;5089942;28;20188;-72
2023/03/21 03:39:59;;;;;;;50.47;34.13;;;;;;;8.10;100.00;101538.94;5089198;28;20211;-74
2023/03/21 03:42:41;;;;;;;48.73;32.60;;;;;;;8.12;100.00;101533.91;5073241;28;20203;-71
2023/03/21 03:45:18;;;;;;;52.13;33.73;;;;;;;8.12;100.00;101533.91;5086421;28;20187;-71
2023/03/21 03:48:00;;;;;;;50.57;34.50;;;;;;;8.12;100.00;101523.72;5106058;28;20286;-73
2023/03/21 03:50:36;;;;;;;48.93;32.53;;;;;;;8.12;100.00;101523.72;5086684;28;20183;-71
2023/03/21 03:53:16;;;;;;;52.73;34.13;;;;;;;8.14;100.00;101519.53;5089542;28;20211;-71
2023/03/21 03:55:43;;;;;;;49.03;33.33;;;;;;;8.15;100.00;101518.75;5105485;27;20202;-71
2023/03/21 03:58:12;;;;;;;53.33;34.20;;;;;;;8.14;100.00;101516.97;5096666;28;20219;-71
2023/03/21 04:00:40;;;;;;;48.77;33.47;;;;;;;8.12;100.00;101516.94;5091100;28;20191;-73
2023/03/21 04:03:08;;;;;;;50.93;34.70;;;;;;;8.13;100.00;101517.78;5108160;28;20657;-71
2023/03/21 04:05:34;;;;;;;47.33;32.80;;;;;;;8.12;100.00;101522.03;5087584;28;20244;-71
2023/03/21 04:07:59;;;;;;;52.97;34.87;;;;;;;8.11;100.00;101522.81;5075259;28;20196;-70
2023/03/21 04:10:32;;;;;;;50.73;34.40;;;;;;;8.12;100.00;101518.63;5089671;28;20210;-71
2023/03/21 04:12:59;;;;;;;51.50;34.20;;;;;;;8.12;100.00;101526.25;5087631;28;20264;-75
2023/03/21 04:15:37;;;;;;;50.67;33.87;;;;;;;8.10;100.00;101522.75;5088525;28;20187;-72
2023/03/21 04:18:10;;;;;;;56.33;36.53;;;;;;;8.11;100.00;101525.38;5090536;28;20211;-72
2023/03/21 04:20:35;;;;;;;55.87;35.30;;;;;;;8.10;100.00;101532.97;5092020;28;20720;-74
2023/03/21 04:23:01;;;;;;;52.73;35.93;;;;;;;8.09;100.00;101516.81;5091073;28;20222;-73
2023/03/21 04:25:27;;;;;;;57.03;35.93;;;;;;;8.10;100.00;101531.28;5090517;28;20188;-73
2023/03/21 04:27:55;;;;;;;54.83;36.17;;;;;;;8.11;100.00;101521.97;5091241;28;20199;-72
2023/03/21 04:30:33;;;;;;;57.23;36.33;;;;;;;8.10;100.00;101526.19;5092029;28;20191;-72
2023/03/21 04:33:19;;;;;;;54.50;35.70;;;;;;;8.12;100.00;101519.50;5091462;28;20204;-72
2023/03/21 04:35:55;;;;;;;53.60;36.20;;;;;;;8.12;100.00;101516.06;5091266;28;20198;-72
2023/03/21 04:38:25;;;;;;;53.67;35.83;;;;;;;8.10;100.00;101512.56;5089525;28;20207;-72
2023/03/21 04:40:51;;;;;;;60.60;38.30;;;;;;;8.09;100.00;101513.38;5091496;28;20195;-72
2023/03/21 04:43:17;;;;;;;58.67;37.60;;;;;;;8.11;100.00;101516.88;5093210;28;20199;-72
2023/03/21 04:45:43;;;;;;;59.37;37.20;;;;;;;8.08;100.00;101515.06;5094691;28;20199;-72
2023/03/21 04:48:08;;;;;;;60.13;39.47;;;;;;;8.09;100.00;101513.38;5094320;28;20679;-71
2023/03/21 04:50:34;;;;;;;59.60;38.00;;;;;;;8.09;100.00;101518.47;5089744;28;20196;-73
2023/03/21 04:52:59;;;;;;;61.20;38.27;;;;;;;8.10;100.00;101515.09;5109974;28;20207;-72
2023/03/21 04:55:28;;;;;;;62.07;39.90;;;;;;;8.10;100.00;101518.53;5092593;28;20200;-71
2023/03/21 04:57:53;;;;;;;63.60;39.57;;;;;;;8.11;100.00;101514.31;5091330;28;20198;-71
2023/03/21 05:00:20;;;;;;;62.90;40.43;;;;;;;8.09;100.00;101519.38;5093239;28;20921;-71
2023/03/21 05:02:46;;;;;;;61.47;39.70;;;;;;;8.09;100.00;101521.03;5092696;28;20307;-71
2023/03/21 05:05:12;;;;;;;64.87;40.53;;;;;;;8.10;100.00;101521.09;5090104;28;20199;-71
2023/03/21 05:07:41;;;;;;;62.17;39.57;;;;;;;8.13;100.00;101515.25;5108521;28;20191;-73
2023/03/21 05:10:10;;;;;;;67.03;41.67;;;;;;;8.12;100.00;101516.06;5088209;28;20193;-73
2023/03/21 05:12:37;;;;;;;66.23;40.23;;;;;;;8.11;100.00;101515.19;5095807;28;20212;-72
2023/03/21 05:15:05;;;;;;;68.27;42.10;;;;;;;8.13;100.00;101516.13;5094998;28;20241;-73
2023/03/21 05:17:30;;;;;;;69.13;42.10;;;;;;;8.15;100.00;101514.50;5112215;28;20211;-73
2023/03/21 05:19:57;;;;;;;71.10;40.70;;;;;;;8.14;100.00;101512.75;5091737;28;20215;-70
2023/03/21 05:22:25;;;;;;;70.37;42.30;;;;;;;8.16;100.00;101515.38;5094727;28;20199;-70
2023/03/21 05:24:54;;;;;;;70.40;42.37;;;;;;;8.17;100.00;101512.00;5093356;28;20184;-71
2023/03/21 05:27:53;;;;;;;71.90;41.67;;;;;;;8.17;100.00;101506.91;5075157;28;20195;-70
2023/03/21 05:30:20;;;;;;;72.80;42.97;;;;;;;8.20;100.00;101510.47;5093735;28;20217;-70
2023/03/21 05:32:47;;;;;;;72.23;41.87;;;;;;;8.20;100.00;101501.94;5093300;28;20252;-72
2023/03/21 05:35:13;;;;;;;74.33;43.17;;;;;;;8.19;100.00;101508.72;5094079;28;20638;-73
2023/03/21 05:37:39;;;;;;;75.27;44.13;;;;;;;8.17;100.00;101506.91;5092554;28;20188;-73
2023/03/21 05:40:06;;;;;;;71.90;43.13;;;;;;;8.21;100.00;101503.69;5093914;28;20215;-71
2023/03/21 05:42:32;;;;;;;74.43;44.50;;;;;;;8.23;100.00;101509.72;5093224;28;20211;-71
2023/03/21 05:44:59;;;;;;;71.93;43.33;;;;;;;8.24;100.00;101508.94;5093631;28;20187;-71
2023/03/21 05:47:28;;;;;;;77.33;44.57;;;;;;;8.21;100.00;101501.16;5097707;28;20311;-70
2023/03/21 05:49:56;;;;;;;76.97;45.47;;;;;;;8.23;100.00;101505.50;5099557;28;20179;-73
2023/03/21 05:52:22;;;;;;;76.47;45.23;;;;;;;8.25;100.00;101508.97;5093228;28;20238;-72
2023/03/21 05:54:48;;;;;;;68.77;41.93;;;;;;;8.28;100.00;101505.66;5091582;28;20195;-72
2023/03/21 05:57:14;;;;;;;75.60;44.87;;;;;;;8.27;100.00;101502.25;5093738;28;20188;-72
2023/03/21 06:00:00;;;;;;;75.07;43.57;;;;;;;8.31;100.00;101505.78;5105291;28;20225;-71
2023/03/21 06:02:26;;;;;;;77.47;44.63;;;;;;;8.31;100.00;101500.69;5092656;28;20635;-71
2023/03/21 06:04:54;;;;;;;76.93;42.73;;;;;;;8.31;100.00;101499.03;5092832;28;20240;-71
2023/03/21 06:07:20;;;;;;;75.97;46.33;;;;;;;8.33;100.00;101502.50;5093407;28;20287;-71
2023/03/21 06:09:45;;;;;;;79.37;46.33;;;;;;;8.37;100.00;101508.56;5092871;28;20287;-71
2023/03/21 06:12:13;;;;;;;79.73;44.87;;;;;;;8.37;100.00;101503.47;5093383;28;20215;-71
2023/03/21 06:14:46;;;;;;;74.70;44.33;;;;;;;8.40;100.00;101499.38;5092773;28;20194;-71
2023/03/21 06:17:21;;;;;;;71.80;43.97;;;;;;;8.43;100.00;101496.06;5093424;28;20195;-71
2023/03/21 06:19:52;;;;;;;75.87;46.07;;;;;;;8.42;100.00;101507.06;5091695;28;20216;-71
2023/03/21 06:22:23;;;;;;;83.77;46.77;;;;;;;8.46;100.00;101501.28;5092880;28;20209;-74
2023/03/21 06:24:49;;;;;;;72.20;45.43;;;;;;;8.46;100.00;101497.06;5098394;28;20592;-70
2023/03/21 06:27:16;;;;;;;72.20;43.93;;;;;;;8.50;100.00;101500.59;5093295;28;20211;-71
2023/03/21 06:30:03;;;;;;;78.43;46.00;;;;;;;8.54;100.00;101495.66;5108206;28;20287;-71
2023/03/21 06:32:34;;;;;;;76.17;46.03;;;;;;;8.55;100.00;101499.97;5092083;28;20636;-70
2023/03/21 06:35:07;;;;;;;79.40;46.57;;;;;;;8.59;100.00;101498.38;5084696;28;20657;-70
2023/03/21 06:37:34;;;;;;;75.37;45.77;;;;;;;8.55;100.00;101502.50;5090437;28;20230;-71
2023/03/21 06:39:59;;;;;;;78.43;46.57;;;;;;;8.62;100.00;101478.09;5092200;28;20232;-70
2023/03/21 06:42:25;;;;;;;79.00;46.20;;;;;;;8.63;100.00;101490.91;5110562;28;20291;-70
2023/03/21 06:44:56;;;;;;;78.60;47.53;;;;;;;8.65;100.00;101488.38;5092509;28;20229;-72
2023/03/21 06:47:22;;;;;;;77.23;46.57;;;;;;;8.66;100.00;101490.16;5092731;28;20715;-74
2023/03/21 06:49:48;;;;;;;77.50;46.10;;;;;;;8.67;100.00;101487.63;5097107;28;20582;-70
2023/03/21 06:52:13;;;;;;;79.27;46.63;;;;;;;8.71;100.00;101484.38;5092357;28;20336;-69
2023/03/21 06:54:39;;;;;;;80.73;46.27;;;;;;;8.72;100.00;101481.03;5092102;28;20667;-69
2023/03/21 06:57:10;;;;;;;78.30;46.73;;;;;;;8.73;100.00;101492.09;5096696;28;20180;-70
2023/03/21 06:59:36;;;;;;;82.10;48.57;;;;;;;8.73;100.00;101489.56;5092022;28;20595;-70
2023/03/21 07:02:06;;;;;;;76.87;48.53;;;;;;;8.70;100.00;101490.31;5092121;28;20208;-72
2023/03/21 07:04:37;;;;;;;77.80;47.87;;;;;;;8.70;100.00;101487.75;5095675;28;20245;-72
2023/03/21 07:07:05;;;;;;;79.27;47.43;;;;;;;8.66;100.00;101485.91;5086981;28;20274;-70
2023/03/21 07:09:30;;;;;;;78.57;47.77;;;;;;;8.69;100.00;101488.56;5092036;28;20334;-70
2023/03/21 07:12:01;;;;;;;76.80;46.77;;;;;;;8.70;100.00;101485.19;5091652;28;20253;-71
2023/03/21 07:14:38;;;;;;;78.50;47.03;;;;;;;8.76;100.00;101484.56;5109506;28;20196;-70
2023/03/21 07:17:03;;;;;;;79.20;46.70;;;;;;;8.80;100.00;101484.72;5091877;28;20186;-70
2023/03/21 07:19:29;;;;;;;77.17;48.07;;;;;;;8.83;100.00;101482.28;5110128;28;20575;-70
2023/03/21 07:21:55;;;;;;;71.43;44.83;;;;;;;8.97;100.00;101485.31;5090535;28;20204;-70
2023/03/21 07:24:20;;;;;;;75.20;47.00;;;;;;;8.98;100.00;101477.72;5093710;28;20717;-72
2023/03/21 07:26:45;;;;;;;74.97;46.03;;;;;;;9.00;100.00;101480.34;5096825;28;20195;-71
2023/03/21 07:29:11;;;;;;;69.50;44.43;;;;;;;9.06;100.00;101478.00;5109987;28;20187;-71
2023/03/21 07:31:38;;;;;;;74.53;45.07;;;;;;;9.05;100.00;101478.81;5091563;28;20215;-69
2023/03/21 07:34:04;;;;;;;74.50;46.07;;;;;;;9.05;100.00;101481.38;5087889;28;20187;-69
2023/03/21 07:36:30;;;;;;;70.13;45.23;;;;;;;9.06;100.00;101480.56;5089700;28;20614;-70
2023/03/21 07:38:56;;;;;;;69.90;45.17;;;;;;;9.14;100.00;101484.25;5091107;28;20223;-69
2023/03/21 07:41:22;;;;;;;67.97;43.03;;;;;;;9.11;100.00;101484.13;5088715;27;20215;-69
2023/03/21 07:43:49;;;;;;;71.83;45.30;;;;;;;9.18;100.00;101486.09;5089603;28;20192;-71
2023/03/21 07:46:15;;;;;;;67.43;43.03;;;;;;;9.18;100.00;101481.88;5089344;28;20599;-69
2023/03/21 07:48:40;;;;;;;62.47;42.77;;;;;;;9.23;100.00;101476.91;5108138;28;20245;-70
2023/03/21 07:51:06;;;;;;;69.10;45.30;;;;;;;9.28;100.00;101477.94;5099066;28;20215;-70
2023/03/21 07:53:33;;;;;;;59.37;41.87;;;;;;;9.23;100.00;101477.78;5105269;28;20220;-70
2023/03/21 07:55:59;;;;;;;62.40;40.97;;;;;;;9.26;100.00;101479.59;5108538;28;20226;-72
2023/03/21 07:58:26;;;;;;;69.67;45.27;;;;;;;9.27;100.00;101487.28;5089237;28;20242;-71
2023/03/21 08:00:52;;;;;;;65.40;43.90;;;;;;;9.25;100.00;101483.81;5104160;28;20687;-71
2023/03/21 08:03:17;;;;;;;63.40;42.90;;;;;;;9.26;100.00;101480.44;5106296;28;20230;-70
2023/03/21 08:05:43;;;;;;;61.17;42.10;;;;;;;9.31;100.00;101481.47;5106299;28;20579;-70
2023/03/21 08:08:09;;;;;;;64.03;42.37;;;;;;;9.34;100.00;101480.69;5089071;28;20271;-71
2023/03/21 08:10:35;;;;;;;66.23;43.80;;;;;;;9.33;100.00;101482.41;5086135;28;20310;-72
2023/03/21 08:13:00;;;;;;;63.33;43.47;;;;;;;9.35;100.00;101485.00;5106041;28;20218;-72
2023/03/21 08:15:26;;;;;;;64.37;43.30;;;;;;;9.34;100.00;101471.34;5107705;28;20741;-69
2023/03/21 08:17:51;;;;;;;65.50;42.53;;;;;;;9.33;100.00;101484.97;5106090;28;20188;-68
2023/03/21 08:20:20;;;;;;;69.60;43.87;;;;;;;9.31;100.00;101471.25;5085661;28;20204;-69
2023/03/21 08:22:46;;;;;;;69.07;44.70;;;;;;;9.36;100.00;101472.25;5105109;28;20202;-70
2023/03/21 08:25:13;;;;;;;64.33;43.00;;;;;;;9.37;100.00;101468.03;5102175;28;20193;-72
2023/03/21 08:27:41;;;;;;;67.80;44.03;;;;;;;9.36;100.00;101479.06;5102409;28;20195;-70
2023/03/21 08:30:09;;;;;;;71.90;45.87;;;;;;;9.37;100.00;101478.25;5105455;28;20695;-69
2023/03/21 08:32:37;;;;;;;70.50;45.67;;;;;;;9.41;100.00;101468.22;5104744;28;20310;-70
2023/03/21 08:35:07;;;;;;;67.53;44.87;;;;;;;9.45;100.00;101470.00;5107389;28;20196;-69
2023/03/21 08:37:33;;;;;;;67.07;43.87;;;;;;;9.51;100.00;101467.69;5106945;28;20210;-70
2023/03/21 08:39:58;;;;;;;67.27;45.17;;;;;;;9.55;100.00;101472.09;5105562;28;20215;-70
2023/03/21 08:42:23;;;;;;;66.63;43.03;;;;;;;9.71;100.00;101463.22;5107289;28;20242;-74
2023/03/21 08:44:49;;;;;;;65.50;43.50;;;;;;;9.73;100.00;101469.25;5104992;28;20180;-71
2023/03/21 08:47:15;;;;;;;62.00;42.97;;;;;;;9.90;100.00;101452.78;5103810;28;20196;-72
2023/03/21 08:49:41;;;;;;;54.83;39.20;;;;;;;9.85;100.00;101465.41;5106163;28;20188;-70
2023/03/21 08:52:06;;;;;;;53.17;38.03;;;;;;;9.87;100.00;101468.00;5107272;28;20276;-71
2023/03/21 08:54:32;;;;;;;53.03;36.27;;;;;;;9.82;100.00;101461.88;5107883;28;20680;-71
2023/03/21 08:56:57;;;;;;;48.37;34.93;;;;;;;9.75;100.00;101459.94;5107226;28;20190;-71
2023/03/21 08:59:23;;;;;;;50.17;36.40;;;;;;;9.79;100.00;101464.34;5087683;28;20260;-71
2023/03/21 09:01:48;;;;;;;50.73;35.40;;;;;;;9.80;100.00;101459.28;5106985;28;20215;-71
2023/03/21 09:04:14;;;;;;;46.00;34.40;;;;;;;9.77;100.00;101460.88;5105464;28;20919;-71
2023/03/21 09:06:44;;;;;;;51.70;35.57;;;;;;;9.78;100.00;101465.16;5107730;28;20192;-71
2023/03/21 09:09:10;;;;;;;46.63;34.20;;;;;;;9.81;100.00;101462.72;5108181;28;20201;-70
2023/03/21 09:11:35;;;;;;;47.27;33.93;;;;;;;9.75;100.00;101460.81;5103772;28;20220;-71
2023/03/21 09:14:01;;;;;;;44.90;31.80;;;;;;;9.79;100.00;101461.78;5110888;28;20195;-73
2023/03/21 09:16:26;;;;;;;45.37;33.93;;;;;;;9.82;100.00;101459.31;5111136;28;20188;-70
2023/03/21 09:18:54;;;;;;;43.87;31.67;;;;;;;9.85;100.00;101457.72;5092673;28;20220;-71
2023/03/21 09:21:21;;;;;;;43.43;33.03;;;;;;;9.81;100.00;101465.28;5109461;28;20323;-71
2023/03/21 09:23:50;;;;;;;51.33;34.63;;;;;;;9.85;100.00;101467.09;5107168;28;20275;-72
2023/03/21 09:26:16;;;;;;;44.03;31.43;;;;;;;9.85;100.00;101462.84;5092949;28;20187;-71
2023/03/21 09:28:41;;;;;;;43.93;32.00;;;;;;;9.89;100.00;101464.69;5110654;28;20240;-71
2023/03/21 09:31:10;;;;;;;45.63;32.00;;;;;;;9.98;100.00;101462.41;5109814;28;20191;-70
2023/03/21 09:33:37;;;;;;;44.77;31.47;;;;;;;9.95;100.00;101467.44;5110797;28;20697;-73
2023/03/21 09:36:05;;;;;;;44.97;32.63;;;;;;;9.99;100.00;101453.03;5110713;28;20220;-72
2023/03/21 09:38:36;;;;;;;43.83;30.70;;;;;;;10.04;100.00;101454.97;5108270;28;20306;-70
2023/03/21 09:41:11;;;;;;;44.43;32.80;;;;;;;10.05;100.00;101455.84;5110191;28;20203;-70
2023/03/21 09:44:05;;;;;;;40.83;29.57;;;;;;;10.09;100.00;101461.09;5110652;28;20216;-71
2023/03/21 09:46:33;;;;;;;43.53;31.37;;;;;;;10.17;100.00;101451.09;5088700;28;20601;-71
2023/03/21 09:49:08;;;;;;;43.73;30.63;;;;;;;10.20;100.00;101444.38;5110114;28;20180;-72
2023/03/21 09:51:49;;;;;;;44.80;30.90;;;;;;;10.25;100.00;101439.41;5091635;28;20229;-70
2023/03/21 09:54:21;;;;;;;45.77;30.43;;;;;;;10.32;100.00;101446.44;5109490;28;20283;-70
2023/03/21 09:56:49;;;;;;;42.07;29.90;;;;;;;10.35;100.00;101443.97;5109563;28;20212;-70
2023/03/21 09:59:23;;;;;;;41.87;29.97;;;;;;;10.36;100.00;101443.13;5095518;28;20231;-69
2023/03/21 10:01:49;;;;;;;47.10;30.73;;;;;;;10.32;100.00;101446.44;5108848;28;20202;-70
2023/03/21 10:04:17;;;;;;;46.60;31.87;;;;;;;10.28;100.00;101447.19;5110930;28;20187;-69
2023/03/21 10:06:47;;;;;;;48.70;33.37;;;;;;;10.27;100.00;101445.44;5108318;28;20196;-71
2023/03/21 10:09:23;;;;;;;49.73;32.07;;;;;;;10.33;100.00;101449.03;5110810;28;20191;-71
2023/03/21 10:12:01;;;;;;;46.53;32.80;;;;;;;10.39;100.00;101438.13;5106675;28;20263;-71
2023/03/21 10:14:44;;;;;;;49.17;33.07;;;;;;;10.43;100.00;101437.38;5108576;28;20688;-71
2023/03/21 10:17:18;;;;;;;50.77;32.80;;;;;;;10.44;100.00;101440.00;5109393;28;20259;-70
2023/03/21 10:19:45;;;;;;;47.53;33.00;;;;;;;10.48;100.00;101436.69;5106846;28;20254;-70
2023/03/21 10:22:11;;;;;;;49.63;33.60;;;;;;;10.52;100.00;101435.09;5108965;28;20211;-70
2023/03/21 10:24:37;;;;;;;50.13;32.27;;;;;;;10.43;100.00;101430.59;5109932;28;20691;-70
2023/03/21 10:27:04;;;;;;;48.57;33.03;;;;;;;10.42;100.00;101430.53;5110422;28;20217;-69
2023/03/21 10:29:41;;;;;;;44.87;32.07;;;;;;;10.41;100.00;101434.78;5109850;28;20261;-70
2023/03/21 10:32:10;;;;;;;49.47;33.00;;;;;;;10.43;100.00;101432.25;5107745;28;20256;-71
2023/03/21 10:34:39;;;;;;;48.37;32.83;;;;;;;10.46;100.00;101429.81;5091287;28;20245;-73
2023/03/21 10:37:05;;;;;;;45.57;30.77;;;;;;;10.47;100.00;101429.81;5106629;28;20223;-70
2023/03/21 10:39:35;;;;;;;47.57;32.27;;;;;;;10.43;100.00;101429.69;4542090;28;10000722;-70
2023/03/21 10:42:01;;;;;;;48.40;31.53;;;;;;;10.44;100.00;101424.63;4981171;28;20745;-70
2023/03/21 10:44:31;;;;;;;47.90;32.20;;;;;;;10.42;100.00;101431.38;5027447;28;20252;-70
2023/03/21 10:47:03;;;;;;;45.07;30.83;;;;;;;10.38;100.00;101427.03;5028450;28;20190;-70
2023/03/21 10:49:30;;;;;;;46.60;32.53;;;;;;;10.43;100.00;101425.47;5020899;28;20186;-72
2023/03/21 10:52:03;;;;;;;49.53;32.03;;;;;;;10.55;100.00;101423.25;5024999;28;20229;-74
2023/03/21 10:54:31;;;;;;;43.13;29.47;;;;;;;10.51;100.00;101428.25;5025221;28;20197;-71
2023/03/21 10:57:07;;;;;;;44.57;28.97;;;;;;;10.48;100.00;101421.34;5026031;28;20191;-70
2023/03/21 10:59:46;;;;;;;41.43;28.40;;;;;;;10.47;100.00;101421.28;5023362;28;20253;-71
2023/03/21 11:02:19;;;;;;;40.13;27.37;;;;;;;10.48;100.00;101423.91;5021103;28;20309;-71
2023/03/21 11:04:45;;;;;;;42.20;29.10;;;;;;;10.43;100.00;101420.34;5025430;28;20241;-72
2023/03/21 11:07:14;;;;;;;42.63;27.67;;;;;;;10.41;100.00;101416.00;5027427;28;20883;-72
2023/03/21 11:09:53;;;;;;;37.90;28.17;;;;;;;10.44;100.00;101408.38;5027089;28;20222;-72
2023/03/21 11:12:33;;;;;;;39.67;28.13;;;;;;;10.45;100.00;101402.44;5023036;28;20605;-74
2023/03/21 11:15:28;;;;;;;42.73;28.47;;;;;;;10.47;100.00;101408.50;5005523;28;20206;-70
2023/03/21 11:17:54;;;;;;;44.27;28.97;;;;;;;10.43;100.00;101402.44;5025856;28;20237;-71
2023/03/21 11:20:21;;;;;;;41.17;29.10;;;;;;;10.44;100.00;101399.03;5028132;28;20296;-70
2023/03/21 11:22:47;;;;;;;40.90;29.03;;;;;;;10.44;100.00;101404.16;5027518;28;20223;-70
2023/03/21 11:25:22;;;;;;;43.90;28.90;;;;;;;10.49;100.00;101401.72;5022984;28;20208;-70